sensor_id;sensor_type;location;lat;lon;timestamp;pressure;altitude;pressure_sealevel;temperature;humidity
44481;BME280;30184;42.018;23.670;2022-10-16T00:02:12;92107.75;;;2.90;91.20
44481;BME280;30184;42.018;23.670;2022-10-16T00:04:42;92259.09;;;4.15;91.05
44481;BME280;30184;42.018;23.670;2022-10-16T00:07:11;91707.13;;;0.69;90.60
44481;BME280;30184;42.018;23.670;2022-10-16T00:09:40;92265.22;;;3.71;91.60
44481;BME280;30184;42.018;23.670;2022-10-16T00:12:10;92224.03;;;3.93;92.29
44481;BME280;30184;42.018;23.670;2022-10-16T00:14:40;92239.03;;;4.01;92.50
44481;BME280;30184;42.018;23.670;2022-10-16T00:17:11;92046.78;;;3.24;92.84
44481;BME280;30184;42.018;23.670;2022-10-16T00:19:40;91763.56;;;0.37;92.62
44481;BME280;30184;42.018;23.670;2022-10-16T00:22:28;91918.31;;;2.10;93.02
44481;BME280;30184;42.018;23.670;2022-10-16T00:24:57;91787.44;;;1.54;92.90
44481;BME280;30184;42.018;23.670;2022-10-16T00:27:27;92214.13;;;4.04;93.22
44481;BME280;30184;42.018;23.670;2022-10-16T00:29:57;91944.00;;;1.47;92.98
44481;BME280;30184;42.018;23.670;2022-10-16T00:32:26;92185.56;;;2.97;93.12
44481;BME280;30184;42.018;23.670;2022-10-16T00:34:55;91974.00;;;2.75;92.94
44481;BME280;30184;42.018;23.670;2022-10-16T00:37:25;92087.16;;;3.46;92.89
44481;BME280;30184;42.018;23.670;2022-10-16T00:39:54;91946.19;;;1.72;92.56
44481;BME280;30184;42.018;23.670;2022-10-16T00:42:23;92008.00;;;2.71;92.55
44481;BME280;30184;42.018;23.670;2022-10-16T00:44:56;91970.59;;;1.67;92.70
44481;BME280;30184;42.018;23.670;2022-10-16T00:47:29;92325.28;;;3.93;92.76
44481;BME280;30184;42.018;23.670;2022-10-16T00:50:02;92002.69;;;2.74;92.02
44481;BME280;30184;42.018;23.670;2022-10-16T00:52:34;91991.03;;;1.52;92.05
44481;BME280;30184;42.018;23.670;2022-10-16T00:55:06;92228.81;;;3.70;92.50
44481;BME280;30184;42.018;23.670;2022-10-16T00:57:36;91812.25;;;1.17;92.31
44481;BME280;30184;42.018;23.670;2022-10-16T01:00:09;92181.56;;;3.62;92.84
44481;BME280;30184;42.018;23.670;2022-10-16T01:02:39;92315.03;;;3.65;93.09
44481;BME280;30184;42.018;23.670;2022-10-16T01:05:08;91583.19;;;-0.27;93.13
44481;BME280;30184;42.018;23.670;2022-10-16T01:07:45;91714.22;;;0.54;93.62
44481;BME280;30184;42.018;23.670;2022-10-16T01:10:26;92200.75;;;2.86;94.22
44481;BME280;30184;42.018;23.670;2022-10-16T01:12:59;92109.59;;;2.16;93.00
44481;BME280;30184;42.018;23.670;2022-10-16T01:15:34;92034.25;;;1.28;92.83
44481;BME280;30184;42.018;23.670;2022-10-16T01:18:09;92287.66;;;3.52;93.13
44481;BME280;30184;42.018;23.670;2022-10-16T01:20:45;91648.69;;;-0.03;92.73
44481;BME280;30184;42.018;23.670;2022-10-16T01:23:27;92265.13;;;3.57;94.02
44481;BME280;30184;42.018;23.670;2022-10-16T01:26:13;91794.25;;;0.51;93.76
44481;BME280;30184;42.018;23.670;2022-10-16T01:28:46;91930.25;;;1.49;94.00
44481;BME280;30184;42.018;23.670;2022-10-16T01:31:20;91893.91;;;1.15;93.86
44481;BME280;30184;42.018;23.670;2022-10-16T01:33:59;91842.88;;;0.63;93.96
44481;BME280;30184;42.018;23.670;2022-10-16T01:36:35;91640.53;;;-0.14;93.66
44481;BME280;30184;42.018;23.670;2022-10-16T01:39:09;91993.25;;;2.10;94.40
44481;BME280;30184;42.018;23.670;2022-10-16T01:41:43;91625.94;;;-0.99;93.88
44481;BME280;30184;42.018;23.670;2022-10-16T01:44:18;92027.16;;;1.39;94.04
44481;BME280;30184;42.018;23.670;2022-10-16T01:46:50;92165.03;;;2.15;94.30
44481;BME280;30184;42.018;23.670;2022-10-16T01:49:21;92168.41;;;2.09;94.58
44481;BME280;30184;42.018;23.670;2022-10-16T01:51:55;92343.94;;;3.45;94.64
44481;BME280;30184;42.018;23.670;2022-10-16T01:54:27;91906.47;;;1.40;94.32
44481;BME280;30184;42.018;23.670;2022-10-16T01:56:59;92203.97;;;3.36;94.80
44481;BME280;30184;42.018;23.670;2022-10-16T01:59:31;91674.50;;;-0.11;94.81
44481;BME280;30184;42.018;23.670;2022-10-16T02:02:06;92353.06;;;3.37;95.36
44481;BME280;30184;42.018;23.670;2022-10-16T02:04:39;92247.16;;;3.27;95.53
44481;BME280;30184;42.018;23.670;2022-10-16T02:07:11;91975.06;;;1.89;95.30
44481;BME280;30184;42.018;23.670;2022-10-16T02:09:41;92294.84;;;3.41;94.68
44481;BME280;30184;42.018;23.670;2022-10-16T02:12:14;91828.22;;;0.80;93.98
44481;BME280;30184;42.018;23.670;2022-10-16T02:14:46;91717.50;;;0.14;94.10
44481;BME280;30184;42.018;23.670;2022-10-16T02:17:17;91677.00;;;-0.21;93.70
44481;BME280;30184;42.018;23.670;2022-10-16T02:19:48;92070.50;;;1.02;93.80
44481;BME280;30184;42.018;23.670;2022-10-16T02:22:22;91796.50;;;0.49;93.72
44481;BME280;30184;42.018;23.670;2022-10-16T02:24:56;91608.09;;;-0.72;93.51
44481;BME280;30184;42.018;23.670;2022-10-16T02:27:28;91630.41;;;-0.57;93.67
44481;BME280;30184;42.018;23.670;2022-10-16T02:30:07;92349.84;;;3.24;94.10
44481;BME280;30184;42.018;23.670;2022-10-16T02:32:40;91951.28;;;1.50;94.10
44481;BME280;30184;42.018;23.670;2022-10-16T02:35:11;92210.34;;;3.21;93.97
44481;BME280;30184;42.018;23.670;2022-10-16T02:37:41;92004.69;;;0.91;93.54
44481;BME280;30184;42.018;23.670;2022-10-16T02:40:11;91973.50;;;0.98;93.79
44481;BME280;30184;42.018;23.670;2022-10-16T02:42:41;91928.72;;;0.65;93.92
44481;BME280;30184;42.018;23.670;2022-10-16T02:45:11;92166.16;;;1.84;94.32
44481;BME280;30184;42.018;23.670;2022-10-16T02:47:40;91816.56;;;0.35;94.34
44481;BME280;30184;42.018;23.670;2022-10-16T02:50:10;91959.09;;;0.54;94.31
44481;BME280;30184;42.018;23.670;2022-10-16T02:52:39;91998.16;;;1.71;94.24
44481;BME280;30184;42.018;23.670;2022-10-16T02:55:08;92003.88;;;1.69;94.50
44481;BME280;30184;42.018;23.670;2022-10-16T02:57:37;92026.00;;;0.87;94.47
44481;BME280;30184;42.018;23.670;2022-10-16T03:00:12;92314.84;;;3.14;94.79
44481;BME280;30184;42.018;23.670;2022-10-16T03:02:42;91874.81;;;0.83;95.15
44481;BME280;30184;42.018;23.670;2022-10-16T03:05:11;92275.66;;;2.46;95.34
44481;BME280;30184;42.018;23.670;2022-10-16T03:07:40;91940.19;;;1.19;95.44
44481;BME280;30184;42.018;23.670;2022-10-16T03:10:09;91820.38;;;0.12;94.98
44481;BME280;30184;42.018;23.670;2022-10-16T03:12:38;91999.75;;;1.45;95.11
44481;BME280;30184;42.018;23.670;2022-10-16T03:15:11;91826.75;;;0.30;94.79
44481;BME280;30184;42.018;23.670;2022-10-16T03:17:40;92109.44;;;1.75;94.77
44481;BME280;30184;42.018;23.670;2022-10-16T03:20:10;92054.91;;;1.83;94.72
44481;BME280;30184;42.018;23.670;2022-10-16T03:22:39;92031.03;;;1.71;95.03
44481;BME280;30184;42.018;23.670;2022-10-16T03:25:08;91719.75;;;-0.41;94.71
44481;BME280;30184;42.018;23.670;2022-10-16T03:27:37;92410.81;;;3.01;95.44
44481;BME280;30184;42.018;23.670;2022-10-16T03:30:08;92242.31;;;3.03;95.67
44481;BME280;30184;42.018;23.670;2022-10-16T03:32:39;91887.25;;;0.45;95.28
44481;BME280;30184;42.018;23.670;2022-10-16T03:35:08;91789.56;;;0.14;95.52
44481;BME280;30184;42.018;23.670;2022-10-16T03:37:38;92334.31;;;2.54;95.77
44481;BME280;30184;42.018;23.670;2022-10-16T03:40:07;92274.91;;;2.75;95.95
44481;BME280;30184;42.018;23.670;2022-10-16T03:42:37;92233.34;;;1.79;95.72
44481;BME280;30184;42.018;23.670;2022-10-16T03:45:06;92166.94;;;1.62;96.00
44481;BME280;30184;42.018;23.670;2022-10-16T03:47:35;92326.16;;;3.00;96.31
44481;BME280;30184;42.018;23.670;2022-10-16T03:50:07;92131.66;;;1.30;96.00
44481;BME280;30184;42.018;23.670;2022-10-16T03:52:36;91916.97;;;0.44;95.81
44481;BME280;30184;42.018;23.670;2022-10-16T03:55:06;91884.41;;;0.61;95.95
44481;BME280;30184;42.018;23.670;2022-10-16T03:57:36;92387.00;;;2.96;96.18
44481;BME280;30184;42.018;23.670;2022-10-16T04:00:06;91986.13;;;1.28;95.98
44481;BME280;30184;42.018;23.670;2022-10-16T04:02:38;92206.47;;;2.25;96.20
44481;BME280;30184;42.018;23.670;2022-10-16T04:05:09;92301.22;;;2.96;96.22
44481;BME280;30184;42.018;23.670;2022-10-16T04:07:38;91983.72;;;0.44;95.17
44481;BME280;30184;42.018;23.670;2022-10-16T04:10:08;92379.16;;;2.84;95.29
44481;BME280;30184;42.018;23.670;2022-10-16T04:12:37;91977.28;;;0.48;94.75
44481;BME280;30184;42.018;23.670;2022-10-16T04:15:07;91916.91;;;0.40;95.40
44481;BME280;30184;42.018;23.670;2022-10-16T04:17:37;92419.28;;;2.77;96.21
44481;BME280;30184;42.018;23.670;2022-10-16T04:20:09;92238.94;;;2.76;96.65
44481;BME280;30184;42.018;23.670;2022-10-16T04:22:38;92371.38;;;2.75;96.38
44481;BME280;30184;42.018;23.670;2022-10-16T04:25:08;92122.28;;;1.40;96.15
44481;BME280;30184;42.018;23.670;2022-10-16T04:27:38;92299.81;;;2.76;96.36
44481;BME280;30184;42.018;23.670;2022-10-16T04:30:10;92022.78;;;0.32;96.23
44481;BME280;30184;42.018;23.670;2022-10-16T04:32:39;92196.81;;;1.19;96.17
44481;BME280;30184;42.018;23.670;2022-10-16T04:35:10;91993.16;;;1.13;96.15
44481;BME280;30184;42.018;23.670;2022-10-16T04:37:41;91932.56;;;0.42;96.19
44481;BME280;30184;42.018;23.670;2022-10-16T04:40:10;92011.59;;;0.46;95.96
44481;BME280;30184;42.018;23.670;2022-10-16T04:42:39;91733.06;;;-1.09;95.90
44481;BME280;30184;42.018;23.670;2022-10-16T04:45:09;92059.00;;;0.53;96.37
44481;BME280;30184;42.018;23.670;2022-10-16T04:47:38;92103.94;;;1.38;96.44
44481;BME280;30184;42.018;23.670;2022-10-16T04:50:10;91887.94;;;0.42;96.54
44481;BME280;30184;42.018;23.670;2022-10-16T04:52:39;92007.31;;;1.13;96.29
44481;BME280;30184;42.018;23.670;2022-10-16T04:55:08;92364.06;;;2.72;96.64
44481;BME280;30184;42.018;23.670;2022-10-16T04:57:42;92232.63;;;1.82;96.41
44481;BME280;30184;42.018;23.670;2022-10-16T05:00:12;92434.81;;;2.68;96.16
44481;BME280;30184;42.018;23.670;2022-10-16T05:02:41;91940.56;;;0.64;95.99
44481;BME280;30184;42.018;23.670;2022-10-16T05:05:12;91867.38;;;0.20;96.16
44481;BME280;30184;42.018;23.670;2022-10-16T05:07:42;91984.69;;;0.81;96.53
44481;BME280;30184;42.018;23.670;2022-10-16T05:10:11;91892.94;;;0.44;96.29
44481;BME280;30184;42.018;23.670;2022-10-16T05:12:40;91949.81;;;0.48;96.14
44481;BME280;30184;42.018;23.670;2022-10-16T05:15:09;91937.22;;;0.71;95.62
44481;BME280;30184;42.018;23.670;2022-10-16T05:17:43;91941.66;;;-0.28;95.13
44481;BME280;30184;42.018;23.670;2022-10-16T05:20:13;91627.13;;;-1.42;94.91
44481;BME280;30184;42.018;23.670;2022-10-16T05:22:43;92112.47;;;1.47;95.11
44481;BME280;30184;42.018;23.670;2022-10-16T05:25:13;92002.97;;;0.33;94.63
44481;BME280;30184;42.018;23.670;2022-10-16T05:27:42;92296.56;;;2.37;95.00
44481;BME280;30184;42.018;23.670;2022-10-16T05:30:11;91689.31;;;-1.31;95.09
44481;BME280;30184;42.018;23.670;2022-10-16T05:32:40;92094.09;;;0.32;95.19
44481;BME280;30184;42.018;23.670;2022-10-16T05:35:09;92470.19;;;2.77;95.31
44481;BME280;30184;42.018;23.670;2022-10-16T05:37:40;92029.81;;;1.12;94.88
44481;BME280;30184;42.018;23.670;2022-10-16T05:40:10;92088.78;;;1.46;94.97
44481;BME280;30184;42.018;23.670;2022-10-16T05:42:40;92343.09;;;2.78;95.01
44481;BME280;30184;42.018;23.670;2022-10-16T05:45:10;92130.56;;;1.08;95.10
44481;BME280;30184;42.018;23.670;2022-10-16T05:47:40;92109.06;;;0.79;95.66
44481;BME280;30184;42.018;23.670;2022-10-16T05:50:14;92278.88;;;2.88;95.96
44481;BME280;30184;42.018;23.670;2022-10-16T05:52:45;91867.53;;;0.04;95.78
44481;BME280;30184;42.018;23.670;2022-10-16T05:55:14;91903.72;;;0.51;96.33
44481;BME280;30184;42.018;23.670;2022-10-16T05:57:43;92037.53;;;1.44;97.15
44481;BME280;30184;42.018;23.670;2022-10-16T06:00:13;91990.34;;;1.29;97.62
44481;BME280;30184;42.018;23.670;2022-10-16T06:02:42;92371.06;;;3.36;98.10
44481;BME280;30184;42.018;23.670;2022-10-16T06:05:11;92169.44;;;2.01;98.13
44481;BME280;30184;42.018;23.670;2022-10-16T06:07:40;91952.50;;;1.27;97.96
44481;BME280;30184;42.018;23.670;2022-10-16T06:10:11;92408.22;;;4.01;97.95
44481;BME280;30184;42.018;23.670;2022-10-16T06:12:40;92342.81;;;4.20;97.65
44481;BME280;30184;42.018;23.670;2022-10-16T06:15:09;92114.16;;;3.19;96.63
44481;BME280;30184;42.018;23.670;2022-10-16T06:17:39;92328.88;;;3.67;95.61
44481;BME280;30184;42.018;23.670;2022-10-16T06:20:08;92293.75;;;4.81;95.15
44481;BME280;30184;42.018;23.670;2022-10-16T06:22:37;91948.69;;;2.72;94.37
44481;BME280;30184;42.018;23.670;2022-10-16T06:25:07;91934.97;;;2.77;93.61
44481;BME280;30184;42.018;23.670;2022-10-16T06:27:39;92047.50;;;3.76;93.51
44481;BME280;30184;42.018;23.670;2022-10-16T06:30:09;91978.56;;;3.22;93.23
44481;BME280;30184;42.018;23.670;2022-10-16T06:32:38;92515.31;;;5.76;92.62
44481;BME280;30184;42.018;23.670;2022-10-16T06:35:08;92107.28;;;4.45;93.43
44481;BME280;30184;42.018;23.670;2022-10-16T06:37:37;92135.91;;;4.96;92.38
44481;BME280;30184;42.018;23.670;2022-10-16T06:40:07;92201.78;;;5.70;90.32
44481;BME280;30184;42.018;23.670;2022-10-16T06:42:37;91978.75;;;4.86;89.32
44481;BME280;30184;42.018;23.670;2022-10-16T06:45:07;92051.75;;;4.96;86.16
44481;BME280;30184;42.018;23.670;2022-10-16T06:47:38;92343.47;;;7.20;82.05
44481;BME280;30184;42.018;23.670;2022-10-16T06:50:07;91792.91;;;4.10;81.12
44481;BME280;30184;42.018;23.670;2022-10-16T06:52:36;92111.03;;;5.56;80.93
44481;BME280;30184;42.018;23.670;2022-10-16T06:55:06;92471.09;;;7.66;81.97
44481;BME280;30184;42.018;23.670;2022-10-16T06:57:37;92081.59;;;6.54;83.59
44481;BME280;30184;42.018;23.670;2022-10-16T07:00:07;92114.44;;;6.03;83.97
44481;BME280;30184;42.018;23.670;2022-10-16T07:02:37;92381.66;;;8.27;84.26
44481;BME280;30184;42.018;23.670;2022-10-16T07:05:08;92021.59;;;6.35;83.95
44481;BME280;30184;42.018;23.670;2022-10-16T07:07:38;92155.44;;;6.92;83.64
44481;BME280;30184;42.018;23.670;2022-10-16T07:10:08;92271.59;;;7.61;83.38
44481;BME280;30184;42.018;23.670;2022-10-16T07:12:39;92293.06;;;8.96;83.50
44481;BME280;30184;42.018;23.670;2022-10-16T07:15:09;92344.34;;;9.14;83.54
44481;BME280;30184;42.018;23.670;2022-10-16T07:17:40;92224.03;;;7.78;82.28
44481;BME280;30184;42.018;23.670;2022-10-16T07:20:10;92351.44;;;9.39;82.18
44481;BME280;30184;42.018;23.670;2022-10-16T07:22:39;92134.28;;;8.49;80.43
44481;BME280;30184;42.018;23.670;2022-10-16T07:25:08;92083.38;;;8.40;79.95
44481;BME280;30184;42.018;23.670;2022-10-16T07:27:40;92335.84;;;9.84;79.65
44481;BME280;30184;42.018;23.670;2022-10-16T07:30:10;91963.34;;;7.93;78.79
44481;BME280;30184;42.018;23.670;2022-10-16T07:32:39;92262.66;;;9.19;78.24
44481;BME280;30184;42.018;23.670;2022-10-16T07:35:08;92327.09;;;9.72;77.80
44481;BME280;30184;42.018;23.670;2022-10-16T07:37:38;92389.75;;;10.46;77.05
44481;BME280;30184;42.018;23.670;2022-10-16T07:40:08;92184.50;;;9.21;76.86
44481;BME280;30184;42.018;23.670;2022-10-16T07:42:38;91869.97;;;7.58;75.99
44481;BME280;30184;42.018;23.670;2022-10-16T07:45:09;92041.56;;;8.48;75.93
44481;BME280;30184;42.018;23.670;2022-10-16T07:47:38;92277.72;;;11.15;75.00
44481;BME280;30184;42.018;23.670;2022-10-16T07:50:08;92124.75;;;9.35;72.78
44481;BME280;30184;42.018;23.670;2022-10-16T07:52:37;92037.16;;;9.92;71.16
44481;BME280;30184;42.018;23.670;2022-10-16T07:55:07;92074.44;;;9.61;71.51
44481;BME280;30184;42.018;23.670;2022-10-16T07:57:37;92232.19;;;11.43;67.06
44481;BME280;30184;42.018;23.670;2022-10-16T08:00:09;92368.31;;;11.72;66.37
44481;BME280;30184;42.018;23.670;2022-10-16T08:02:41;92325.53;;;12.15;66.15
44481;BME280;30184;42.018;23.670;2022-10-16T08:05:12;91833.63;;;9.44;65.09
44481;BME280;30184;42.018;23.670;2022-10-16T08:07:48;92075.72;;;10.27;64.37
44481;BME280;30184;42.018;23.670;2022-10-16T08:10:18;92103.03;;;10.59;63.24
44481;BME280;30184;42.018;23.670;2022-10-16T08:12:48;91834.34;;;9.87;63.28
44481;BME280;30184;42.018;23.670;2022-10-16T08:15:22;91734.03;;;9.31;61.42
44481;BME280;30184;42.018;23.670;2022-10-16T08:17:56;92299.28;;;12.77;62.18
44481;BME280;30184;42.018;23.670;2022-10-16T08:20:26;92168.50;;;11.44;61.29
44481;BME280;30184;42.018;23.670;2022-10-16T08:22:56;92199.69;;;11.95;60.50
44481;BME280;30184;42.018;23.670;2022-10-16T08:25:25;91828.97;;;10.23;59.60
44481;BME280;30184;42.018;23.670;2022-10-16T08:27:57;92270.19;;;13.23;59.74
44481;BME280;30184;42.018;23.670;2022-10-16T08:30:28;92016.72;;;11.42;59.41
44481;BME280;30184;42.018;23.670;2022-10-16T08:32:57;91842.84;;;10.45;58.53
44481;BME280;30184;42.018;23.670;2022-10-16T08:35:27;91941.06;;;11.41;57.05
44481;BME280;30184;42.018;23.670;2022-10-16T08:38:02;92160.00;;;12.14;57.47
44481;BME280;30184;42.018;23.670;2022-10-16T08:40:34;91947.09;;;11.65;57.70
44481;BME280;30184;42.018;23.670;2022-10-16T08:43:23;92123.81;;;12.62;57.52
44481;BME280;30184;42.018;23.670;2022-10-16T08:46:28;92241.91;;;13.74;56.26
44481;BME280;30184;42.018;23.670;2022-10-16T08:49:03;91833.19;;;10.60;56.36
44481;BME280;30184;42.018;23.670;2022-10-16T08:51:36;91799.75;;;10.96;56.18
44481;BME280;30184;42.018;23.670;2022-10-16T08:54:16;92421.13;;;14.06;56.66
44481;BME280;30184;42.018;23.670;2022-10-16T08:57:16;91888.09;;;10.84;54.07
44481;BME280;30184;42.018;23.670;2022-10-16T08:59:47;92229.13;;;14.26;54.37
44481;BME280;30184;42.018;23.670;2022-10-16T09:02:26;92313.56;;;14.04;54.67
44481;BME280;30184;42.018;23.670;2022-10-16T09:05:21;92114.13;;;12.61;54.09
44481;BME280;30184;42.018;23.670;2022-10-16T09:08:08;92366.66;;;14.44;53.26
44481;BME280;30184;42.018;23.670;2022-10-16T09:10:43;92201.28;;;13.06;52.49
44481;BME280;30184;42.018;23.670;2022-10-16T09:13:22;92100.50;;;12.61;53.68
44481;BME280;30184;42.018;23.670;2022-10-16T09:15:58;92252.59;;;13.69;53.11
44481;BME280;30184;42.018;23.670;2022-10-16T09:18:35;91956.59;;;12.88;52.90
44481;BME280;30184;42.018;23.670;2022-10-16T09:21:14;92010.06;;;13.36;52.55
44481;BME280;30184;42.018;23.670;2022-10-16T09:23:44;91893.09;;;11.95;nan
44481;BME280;30184;42.018;23.670;2022-10-16T09:26:16;91804.47;;;12.11;52.50
44481;BME280;30184;42.018;23.670;2022-10-16T09:28:45;92026.28;;;12.73;50.73
44481;BME280;30184;42.018;23.670;2022-10-16T09:31:19;91854.00;;;12.18;52.43
44481;BME280;30184;42.018;23.670;2022-10-16T09:33:55;92028.03;;;13.72;51.01
44481;BME280;30184;42.018;23.670;2022-10-16T09:36:28;92170.25;;;14.25;50.83
44481;BME280;30184;42.018;23.670;2022-10-16T09:39:03;91823.25;;;12.47;51.24
44481;BME280;30184;42.018;23.670;2022-10-16T09:41:34;92198.53;;;14.18;51.00
44481;BME280;30184;42.018;23.670;2022-10-16T09:44:15;91967.75;;;13.06;51.38
44481;BME280;30184;42.018;23.670;2022-10-16T09:46:46;91948.84;;;12.99;50.95
44481;BME280;30184;42.018;23.670;2022-10-16T09:49:25;91885.97;;;12.81;50.16
44481;BME280;30184;42.018;23.670;2022-10-16T09:52:11;92061.66;;;13.43;50.39
44481;BME280;30184;42.018;23.670;2022-10-16T09:54:53;91908.53;;;13.07;49.95
44481;BME280;30184;42.018;23.670;2022-10-16T09:57:27;92424.69;;;15.28;48.83
44481;BME280;30184;42.018;23.670;2022-10-16T10:00:18;92122.44;;;13.95;48.79
44481;BME280;30184;42.018;23.670;2022-10-16T10:02:54;91843.69;;;11.84;48.98
44481;BME280;30184;42.018;23.670;2022-10-16T10:05:38;91754.75;;;12.36;48.97
44481;BME280;30184;42.018;23.670;2022-10-16T10:08:19;92069.16;;;13.39;49.29
44481;BME280;30184;42.018;23.670;2022-10-16T10:10:49;92200.81;;;15.17;49.31
44481;BME280;30184;42.018;23.670;2022-10-16T10:13:25;92020.44;;;14.27;48.35
44481;BME280;30184;42.018;23.670;2022-10-16T10:16:05;92212.75;;;15.45;47.93
44481;BME280;30184;42.018;23.670;2022-10-16T10:18:37;91841.84;;;12.23;48.16
44481;BME280;30184;42.018;23.670;2022-10-16T10:21:34;92198.94;;;15.49;47.95
44481;BME280;30184;42.018;23.670;2022-10-16T10:25:19;92202.69;;;15.55;46.83
44481;BME280;30184;42.018;23.670;2022-10-16T10:28:14;92235.69;;;15.60;46.86
44481;BME280;30184;42.018;23.670;2022-10-16T10:30:57;92247.16;;;14.61;46.75
44481;BME280;30184;42.018;23.670;2022-10-16T10:33:46;92195.16;;;15.68;45.91
44481;BME280;30184;42.018;23.670;2022-10-16T10:36:32;92015.31;;;13.69;45.83
44481;BME280;30184;42.018;23.670;2022-10-16T10:39:12;92352.22;;;15.71;46.07
44481;BME280;30184;42.018;23.670;2022-10-16T10:42:26;91773.97;;;13.04;46.07
44481;BME280;30184;42.018;23.670;2022-10-16T10:45:38;91969.09;;;14.34;44.95
44481;BME280;30184;42.018;23.670;2022-10-16T10:48:22;91761.09;;;12.58;45.33
44481;BME280;30184;42.018;23.670;2022-10-16T10:51:00;92200.06;;;15.73;45.12
44481;BME280;30184;42.018;23.670;2022-10-16T10:53:49;91760.91;;;12.99;45.09
44481;BME280;30184;42.018;23.670;2022-10-16T10:56:42;91828.91;;;12.65;44.84
44481;BME280;30184;42.018;23.670;2022-10-16T10:59:38;92292.84;;;15.80;45.12
44481;BME280;30184;42.018;23.670;2022-10-16T11:02:40;91988.47;;;14.14;44.25
44481;BME280;30184;42.018;23.670;2022-10-16T11:05:45;91997.47;;;14.71;44.12
44481;BME280;30184;42.018;23.670;2022-10-16T11:08:48;92168.34;;;15.85;43.98
44481;BME280;30184;42.018;23.670;2022-10-16T11:11:41;92047.34;;;15.06;43.04
44481;BME280;30184;42.018;23.670;2022-10-16T11:17:38;92155.19;;;15.92;43.67
44481;BME280;30184;42.018;23.670;2022-10-16T11:20:19;92372.03;;;15.96;43.60
44481;BME280;30184;42.018;23.670;2022-10-16T11:23:51;92143.50;;;16.01;43.60
44481;BME280;30184;42.018;23.670;2022-10-16T11:27:39;91851.19;;;13.36;43.55
44481;BME280;30184;42.018;23.670;2022-10-16T11:30:51;91679.50;;;13.01;42.30
44481;BME280;30184;42.018;23.670;2022-10-16T11:33:45;92150.41;;;16.15;43.23
44481;BME280;30184;42.018;23.670;2022-10-16T11:36:23;91787.84;;;12.97;42.53
44481;BME280;30184;42.018;23.670;2022-10-16T11:39:09;91927.22;;;14.50;42.87
44481;BME280;30184;42.018;23.670;2022-10-16T11:41:45;92238.50;;;16.22;41.79
44481;BME280;30184;42.018;23.670;2022-10-16T11:44:33;92321.75;;;16.25;41.73
44481;BME280;30184;42.018;23.670;2022-10-16T11:47:23;92056.06;;;14.92;41.28
44481;BME280;30184;42.018;23.670;2022-10-16T11:50:23;91763.84;;;13.52;40.44
44481;BME280;30184;42.018;23.670;2022-10-16T11:53:01;92018.53;;;15.14;40.32
44481;BME280;30184;42.018;23.670;2022-10-16T11:55:35;91715.88;;;13.20;38.80
44481;BME280;30184;42.018;23.670;2022-10-16T11:58:13;91755.00;;;13.01;39.90
44481;BME280;30184;42.018;23.670;2022-10-16T12:00:53;91937.66;;;14.64;40.00
44481;BME280;30184;42.018;23.670;2022-10-16T12:03:30;92119.75;;;15.23;39.60
44481;BME280;30184;42.018;23.670;2022-10-16T12:06:13;91849.59;;;14.38;39.70
44481;BME280;30184;42.018;23.670;2022-10-16T12:09:01;92099.72;;;15.05;38.83
44481;BME280;30184;42.018;23.670;2022-10-16T12:11:34;92021.69;;;14.47;39.46
44481;BME280;30184;42.018;23.670;2022-10-16T12:14:20;92090.34;;;15.80;39.75
44481;BME280;30184;42.018;23.670;2022-10-16T12:19:57;91907.50;;;14.55;39.15
44481;BME280;30184;42.018;23.670;2022-10-16T12:22:28;91958.19;;;14.56;39.38
44481;BME280;30184;42.018;23.670;2022-10-16T12:25:01;91964.69;;;15.24;38.17
44481;BME280;30184;42.018;23.670;2022-10-16T12:27:41;91752.09;;;13.42;39.05
44481;BME280;30184;42.018;23.670;2022-10-16T12:30:20;92235.47;;;16.51;39.25
44481;BME280;30184;42.018;23.670;2022-10-16T12:33:00;92165.63;;;16.56;38.98
44481;BME280;30184;42.018;23.670;2022-10-16T12:35:33;92159.03;;;15.73;38.07
44481;BME280;30184;42.018;23.670;2022-10-16T12:38:12;92281.28;;;16.51;38.69
44481;BME280;30184;42.018;23.670;2022-10-16T12:41:09;92262.09;;;16.51;38.99
44481;BME280;30184;42.018;23.670;2022-10-16T12:43:41;92170.25;;;16.28;38.56
44481;BME280;30184;42.018;23.670;2022-10-16T12:46:50;91982.16;;;14.52;38.98
44481;BME280;30184;42.018;23.670;2022-10-16T12:50:42;91775.22;;;12.65;37.95
44481;BME280;30184;42.018;23.670;2022-10-16T12:53:42;92037.69;;;15.14;37.83
44481;BME280;30184;42.018;23.670;2022-10-16T12:56:31;91783.69;;;13.74;37.69
44481;BME280;30184;42.018;23.670;2022-10-16T12:59:33;91684.63;;;12.99;36.95
44481;BME280;30184;42.018;23.670;2022-10-16T13:02:56;91914.69;;;13.83;37.77
44481;BME280;30184;42.018;23.670;2022-10-16T13:05:50;91926.09;;;13.57;37.53
44481;BME280;30184;42.018;23.670;2022-10-16T13:08:35;91616.03;;;12.57;38.01
44481;BME280;30184;42.018;23.670;2022-10-16T13:11:14;91895.47;;;14.43;37.05
44481;BME280;30184;42.018;23.670;2022-10-16T13:14:19;91875.38;;;13.59;37.46
44481;BME280;30184;42.018;23.670;2022-10-16T13:17:01;92011.00;;;14.53;38.06
44481;BME280;30184;42.018;23.670;2022-10-16T13:19:46;92078.09;;;14.76;38.00
44481;BME280;30184;42.018;23.670;2022-10-16T13:22:27;91893.84;;;13.30;38.32
44481;BME280;30184;42.018;23.670;2022-10-16T13:25:14;92211.41;;;15.28;36.99
44481;BME280;30184;42.018;23.670;2022-10-16T13:27:55;91780.06;;;13.08;37.15
44481;BME280;30184;42.018;23.670;2022-10-16T13:30:27;91875.66;;;14.08;37.66
44481;BME280;30184;42.018;23.670;2022-10-16T13:33:00;91730.25;;;13.08;37.18
44481;BME280;30184;42.018;23.670;2022-10-16T13:35:32;91946.28;;;14.28;37.18
44481;BME280;30184;42.018;23.670;2022-10-16T13:38:12;91908.06;;;14.28;36.73
44481;BME280;30184;42.018;23.670;2022-10-16T13:40:54;91894.56;;;14.25;37.01
44481;BME280;30184;42.018;23.670;2022-10-16T13:43:28;92316.44;;;16.21;37.31
44481;BME280;30184;42.018;23.670;2022-10-16T13:46:03;92289.81;;;16.22;37.50
44481;BME280;30184;42.018;23.670;2022-10-16T13:48:34;91722.13;;;12.95;37.01